Time;durP1;ratioP1;P1;durP2;ratioP2;P2;SDS_P1;SDS_P2;PMS_P1;PMS_P2;Temp;Humidity;BMP_temperature;BMP_pressure;BME280_temperature;BME280_humidity;BME280_pressure;Samples;Min_cycle;Max_cycle;Signal;HPM_P1;HPM_P2
2023/04/03 00:01:38;;;;;;;3.33;2.05;;;;;;;;;;4867231;29;20052;-90
2023/04/03 00:04:07;;;;;;;5.30;2.05;;;;;;;;;;4851826;29;20052;-90
2023/04/03 00:06:33;;;;;;;3.17;1.88;;;;;;;;;;4866766;29;20483;-90
2023/04/03 00:09:00;;;;;;;2.58;2.03;;;;;;;;;;4866633;29;20067;-91
2023/04/03 00:11:26;;;;;;;2.33;1.95;;;;;;;;;;4867175;29;20084;-90
2023/04/03 00:13:52;;;;;;;2.60;2.10;;;;;;;;;;4866595;29;20522;-90
2023/04/03 00:16:18;;;;;;;3.22;1.52;;;;;;;;;;4866794;29;20049;-91
2023/04/03 00:18:44;;;;;;;1.80;1.70;;;;;;;;;;4867140;29;20048;-91
2023/04/03 00:21:12;;;;;;;2.10;1.88;;;;;;;;;;4866991;29;20044;-90
2023/04/03 00:23:38;;;;;;;2.45;2.03;;;;;;;;;;4882251;29;20111;-91
2023/04/03 00:26:05;;;;;;;4.07;1.80;;;;;;;;;;4851425;29;20048;-91
2023/04/03 00:28:37;;;;;;;3.63;1.70;;;;;;;;;;4866901;29;20068;-90
2023/04/03 00:31:03;;;;;;;1.38;1.23;;;;;;;;;;4866490;29;20049;-93
2023/04/03 00:33:29;;;;;;;3.72;1.60;;;;;;;;;;4851578;29;20143;-90
2023/04/03 00:35:55;;;;;;;2.08;1.40;;;;;;;;;;4851336;29;20048;-91
2023/04/03 00:38:21;;;;;;;2.25;1.50;;;;;;;;;;4866723;29;20079;-91
2023/04/03 00:40:49;;;;;;;1.40;1.30;;;;;;;;;;4851877;29;20422;-91
2023/04/03 00:43:17;;;;;;;2.72;1.75;;;;;;;;;;4870976;29;20048;-90
2023/04/03 00:45:47;;;;;;;4.80;2.28;;;;;;;;;;4870708;29;20133;-92
2023/04/03 00:48:52;;;;;;;2.20;1.65;;;;;;;;;;4872205;29;20139;-94
2023/04/03 00:51:22;;;;;;;;;;;2.30;99.90;;;;;;4795257;29;20093;-95
2023/04/03 00:53:51;;;;;;;2.63;1.55;;;;;;;;;;4809470;29;20370;-94
2023/04/03 00:56:18;;;;;;;5.90;1.30;;;;;;;;;;4828535;29;20132;-94
2023/04/03 00:58:49;;;;;;;3.95;1.55;;;;;;;;;;4856172;29;20052;-94
2023/04/03 01:01:18;;;;;;;1.77;1.60;;;;;;;;;;4886242;29;20514;-94
2023/04/03 01:03:47;;;;;;;4.10;1.60;;;;;;;;;;4870509;29;20498;-95
2023/04/03 01:06:16;;;;;;;3.88;1.52;;;;;;;;;;4870762;29;20057;-93
2023/04/03 01:08:42;;;;;;;2.00;1.73;;;;;;;;;;4874211;29;20143;-92
2023/04/03 01:11:09;;;;;;;2.08;1.67;;;;;;;;;;4873575;29;20489;-92
2023/04/03 01:13:35;;;;;;;2.20;1.42;;;;;;;;;;4873494;29;20061;-93
2023/04/03 01:16:03;;;;;;;1.80;1.30;;;;;;;;;;4873797;29;20197;-93
2023/04/03 01:18:29;;;;;;;2.75;1.48;;;;;;;;;;4874481;29;20263;-94
2023/04/03 01:20:58;;;;;;;3.33;3.05;;;;;;;;;;4858916;29;20053;-92
2023/04/03 01:23:37;;;;;;;2.70;1.42;;;;;;;;;;4872021;29;20399;-92
2023/04/03 01:26:03;;;;;;;1.80;1.33;;;;;;;;;;4871469;29;20518;-93
2023/04/03 01:28:33;;;;;;;2.33;1.60;;;;;;;;;;4873148;29;20048;-92
2023/04/03 01:31:09;;;;;;;3.28;1.42;;;;;;;;;;4885839;29;20059;-92
2023/04/03 01:33:35;;;;;;;3.00;1.30;;;;;;;;;;4871846;29;20052;-92
2023/04/03 01:36:05;;;;;;;7.00;1.92;;;;;;;;;;4854181;29;20059;-92
2023/04/03 01:38:35;;;;;;;2.85;1.48;;;;;;;;;;4885661;29;20068;-92
2023/04/03 01:41:04;;;;;;;4.47;1.83;;;;;;;;;;4870248;29;20048;-92
2023/04/03 01:43:32;;;;;;;2.55;1.63;;;;;;;;;;4869709;29;20534;-91
2023/04/03 01:45:58;;;;;;;2.63;1.63;;;;;;;;;;4870031;29;20143;-91
2023/04/03 01:48:25;;;;;;;2.30;1.40;;;;;;;;;;4869836;29;20048;-92
2023/04/03 01:50:51;;;;;;;3.55;1.52;;;;;;;;;;4854136;29;20069;-92
2023/04/03 01:53:17;;;;;;;4.70;1.70;;;;;;;;;;4854600;29;20048;-92
2023/04/03 01:55:43;;;;;;;4.30;1.63;;;;;;;;;;4869380;29;20048;-91
2023/04/03 01:58:09;;;;;;;3.90;2.00;;;;;;;;;;4869234;29;20052;-92
2023/04/03 02:00:36;;;;;;;4.28;1.92;;;;;;;;;;4869261;29;20059;-91
2023/04/03 02:03:02;;;;;;;2.45;1.38;;;;;;;;;;4869345;29;20055;-91
2023/04/03 02:05:28;;;;;;;5.97;1.58;;;;;;;;;;4869346;29;20044;-90
2023/04/03 02:07:55;;;;;;;4.53;2.08;;;;;;;;;;4854072;29;20512;-91
2023/04/03 02:10:21;;;;;;;1.77;1.63;;;;;;;;;;4868706;29;20056;-92
2023/04/03 02:12:47;;;;;;;2.15;1.55;;;;;;;;;;4853924;29;20147;-92
2023/04/03 02:15:13;;;;;;;1.70;1.33;;;;;;;;;;4854464;29;20065;-92
2023/04/03 02:17:39;;;;;;;7.60;2.10;;;;;;;;;;4853752;29;20060;-92
2023/04/03 02:20:06;;;;;;;2.67;1.50;;;;;;;;;;4869170;29;20045;-91
2023/04/03 02:22:32;;;;;;;5.28;1.58;;;;;;;;;;4869209;29;20048;-92
2023/04/03 02:24:58;;;;;;;2.08;1.67;;;;;;;;;;4855164;29;20386;-91
2023/04/03 02:27:24;;;;;;;3.47;2.20;;;;;;;;;;4853452;29;20119;-91
2023/04/03 02:29:51;;;;;;;2.40;1.30;;;;;;;;;;4868150;29;20056;-91
2023/04/03 02:32:17;;;;;;;1.98;1.65;;;;;;;;;;4868597;29;20064;-91
2023/04/03 02:34:43;;;;;;;3.58;1.85;;;;;;;;;;4853825;29;20064;-92
2023/04/03 02:37:09;;;;;;;5.32;1.92;;;;;;;;;;4868335;29;20102;-91
2023/04/03 02:39:35;;;;;;;3.95;1.70;;;;;;;;;;4853541;29;20063;-91
2023/04/03 02:42:01;;;;;;;4.38;1.92;;;;;;;;;;4884224;29;20056;-92
2023/04/03 02:44:27;;;;;;;3.35;1.75;;;;;;;;;;4868489;29;20195;-91
2023/04/03 02:46:54;;;;;;;4.53;1.80;;;;;;;;;;4868402;29;20048;-92
2023/04/03 02:49:20;;;;;;;3.63;1.63;;;;;;;;;;4884767;29;20060;-91
2023/04/03 02:51:48;;;;;;;3.63;1.60;;;;;;;;;;4869143;29;20075;-91
2023/04/03 02:54:14;;;;;;;2.30;1.77;;;;;;;;;;4868989;29;20048;-92
2023/04/03 02:56:40;;;;;;;3.63;1.70;;;;;;;;;;4867993;29;20048;-91
2023/04/03 02:59:06;;;;;;;1.73;1.63;;;;;;;;;;4868258;29;20071;-91
2023/04/03 03:01:33;;;;;;;3.33;1.63;;;;;;;;;;4867772;29;20091;-92
2023/04/03 03:04:08;;;;;;;4.63;1.95;;;;;;;;;;4867878;29;20520;-91
2023/04/03 03:06:34;;;;;;;6.03;1.80;;;;;;;;;;4867892;29;20414;-91
2023/04/03 03:09:00;;;;;;;3.92;1.50;;;;;;;;;;4867832;29;20135;-92
2023/04/03 03:11:26;;;;;;;1.73;1.60;;;;;;;;;;4852493;29;20052;-90
2023/04/03 03:13:52;;;;;;;6.70;2.05;;;;;;;;;;4867774;29;20052;-91
2023/04/03 03:16:19;;;;;;;4.20;1.90;;;;;;;;;;4867721;29;20422;-90
2023/04/03 03:18:45;;;;;;;2.72;2.08;;;;;;;;;;4852808;29;20436;-90
2023/04/03 03:21:11;;;;;;;6.78;1.77;;;;;;;;;;4867125;29;20490;-91
2023/04/03 03:23:37;;;;;;;2.63;1.90;;;;;;;;;;4867019;29;20060;-91
2023/04/03 03:26:05;;;;;;;2.70;1.90;;;;;;;;;;4852643;29;20095;-91
2023/04/03 03:28:31;;;;;;;5.60;2.08;;;;;;;;;;4867094;29;20112;-91
2023/04/03 03:30:58;;;;;;;3.65;1.70;;;;;;;;;;4866997;29;20148;-91
2023/04/03 03:33:25;;;;;;;2.92;1.83;;;;;;;;;;4867140;29;20447;-90
2023/04/03 03:35:51;;;;;;;2.45;1.75;;;;;;;;;;4866940;29;20083;-91
2023/04/03 03:38:18;;;;;;;5.97;1.90;;;;;;;;;;4867172;29;20056;-91
2023/04/03 03:40:44;;;;;;;1.73;1.58;;;;;;;;;;4866789;29;20048;-92
2023/04/03 03:43:10;;;;;;;4.70;1.70;;;;;;;;;;4867414;29;20060;-91
2023/04/03 03:45:36;;;;;;;5.93;2.40;;;;;;;;;;4866964;29;20120;-91
2023/04/03 03:48:03;;;;;;;3.88;1.25;;;;;;;;;;4851697;29;20143;-91
2023/04/03 03:50:29;;;;;;;3.40;1.58;;;;;;;;;;4867191;29;20111;-92
2023/04/03 03:52:55;;;;;;;9.43;2.00;;;;;;;;;;4852413;29;20056;-91
2023/04/03 03:55:21;;;;;;;3.20;1.90;;;;;;;;;;4856038;29;20509;-91
2023/04/03 03:57:47;;;;;;;8.20;2.03;;;;;;;;;;4867061;29;20059;-91
2023/04/03 04:00:14;;;;;;;5.93;2.20;;;;;;;;;;4851818;29;20052;-92
2023/04/03 04:02:40;;;;;;;3.85;1.95;;;;;;;;;;4866810;29;20048;-92
2023/04/03 04:05:06;;;;;;;3.08;1.77;;;;;;;;;;4866977;29;20059;-91
2023/04/03 04:07:32;;;;;;;5.03;2.20;;;;;;;;;;4851166;29;20506;-91
2023/04/03 04:09:58;;;;;;;4.03;1.88;;;;;;;;;;4866493;29;20410;-90
2023/04/03 04:12:25;;;;;;;5.40;2.40;;;;;;;;;;4866609;29;20055;-91
2023/04/03 04:14:51;;;;;;;5.30;2.10;;;;;;;;;;4851294;29;20486;-91
2023/04/03 04:17:17;;;;;;;4.82;2.53;;;;;;;;;;4866557;29;20063;-90
2023/04/03 04:19:44;;;;;;;3.28;1.70;;;;;;;;;;4866891;29;20056;-91
2023/04/03 04:22:12;;;;;;;2.08;1.73;;;;;;;;;;4867203;29;20406;-90
2023/04/03 04:24:38;;;;;;;3.25;1.70;;;;;;;;;;4866636;29;20418;-92
2023/04/03 04:27:04;;;;;;;11.73;2.60;;;;;;;;;;4866729;29;20123;-91
2023/04/03 04:29:35;;;;;;;4.07;1.77;;;;;;;;;;4851244;29;20059;-91
2023/04/03 04:32:02;;;;;;;4.53;1.88;;;;;;;;;;4867095;29;20195;-89
2023/04/03 04:34:28;;;;;;;4.55;2.10;;;;;;;;;;4866266;29;20045;-90
2023/04/03 04:36:54;;;;;;;3.10;1.92;;;;;;;;;;4866182;29;20056;-90
2023/04/03 04:39:20;;;;;;;5.90;2.50;;;;;;;;;;4866348;29;20505;-90
2023/04/03 04:41:49;;;;;;;6.55;2.38;;;;;;;;;;4851255;29;20490;-90
2023/04/03 04:44:25;;;;;;;4.35;2.38;;;;;;;;;;4867671;29;20052;-90
2023/04/03 04:47:03;;;;;;;;;;;;;;;;;;;;;
2023/04/03 04:50:07;;;;;;;5.78;2.67;;;;;;;;;;4881668;29;20060;-89
2023/04/03 04:52:35;;;;;;;;;;;0.60;99.90;;;;;;4850565;29;20052;-90
2023/04/03 04:55:10;;;;;;;16.70;2.30;;;;;;;;;;4850214;29;19931;-90
2023/04/03 04:57:54;;;;;;;6.03;2.58;;;;;;;;;;4861904;29;20058;-90
2023/04/03 05:00:24;;;;;;;4.22;2.42;;;;;;;;;;4847727;29;20562;-90
2023/04/03 05:10:03;;;;;;;9.75;2.83;;;;;;;;;;4863861;29;20105;-90
2023/04/03 05:19:49;;;;;;;4.15;2.47;;;;;;;;;;4882464;29;20112;-90
2023/04/03 05:22:33;;;;;;;5.68;2.55;;;;;;;;;;4865633;29;20137;-89
2023/04/03 05:25:00;;;;;;;20.17;3.42;;;;;;;;;;4847910;29;20143;-91
2023/04/03 05:27:30;;;;;;;3.05;2.13;;;;;;;;;;4848715;29;20585;-91
2023/04/03 05:29:57;;;;;;;10.82;3.03;;;;;;;;;;4851314;29;20059;-91
2023/04/03 05:32:33;;;;;;;5.20;2.67;;;;;;;;;;4851168;29;20057;-90
2023/04/03 05:35:00;;;;;;;4.63;2.80;;;;;;;;;;4851387;29;20049;-90
2023/04/03 05:37:26;;;;;;;11.93;2.78;;;;;;;;;;4851745;29;20406;-90
2023/04/03 05:39:52;;;;;;;4.18;2.85;;;;;;;;;;4850885;29;20056;-90
2023/04/03 05:42:20;;;;;;;7.55;2.85;;;;;;;;;;4851009;29;20057;-90
2023/04/03 05:44:47;;;;;;;9.27;5.72;;;;;;;;;;4866618;29;20148;-90
2023/04/03 05:47:13;;;;;;;13.23;3.20;;;;;;;;;;4850836;29;20239;-89
2023/04/03 05:49:40;;;;;;;7.63;3.00;;;;;;;;;;4850751;29;20135;-90
2023/04/03 05:52:10;;;;;;;6.57;2.55;;;;;;;;;;4836205;29;20056;-89
2023/04/03 05:54:36;;;;;;;10.68;5.88;;;;;;;;;;4851066;29;20041;-89
2023/04/03 05:57:02;;;;;;;5.57;3.13;;;;;;;;;;4850780;29;20092;-89
2023/04/03 05:59:28;;;;;;;5.15;2.78;;;;;;;;;;4850378;29;20063;-90
2023/04/03 06:01:55;;;;;;;8.38;2.25;;;;;;;;;;4849910;29;20049;-89
2023/04/03 06:04:21;;;;;;;5.05;2.75;;;;;;;;;;4850465;29;20056;-90
2023/04/03 06:06:51;;;;;;;6.80;3.42;;;;;;;;;;4849792;29;20147;-89
2023/04/03 06:09:18;;;;;;;4.93;2.50;;;;;;;;;;4850017;29;20077;-88
2023/04/03 06:11:44;;;;;;;6.68;3.03;;;;;;;;;;4849466;29;20060;-89
2023/04/03 06:14:11;;;;;;;4.95;2.80;;;;;;;;;;4849262;29;20057;-90
2023/04/03 06:16:38;;;;;;;8.90;2.72;;;;;;;;;;4849631;29;20149;-89
2023/04/03 06:19:05;;;;;;;13.93;2.97;;;;;;;;;;4849397;29;20102;-90
2023/04/03 06:21:31;;;;;;;3.97;2.55;;;;;;;;;;4849791;29;20204;-91
2023/04/03 06:23:58;;;;;;;5.28;3.20;;;;;;;;;;4834271;29;20135;-89
2023/04/03 06:26:24;;;;;;;9.98;3.30;;;;;;;;;;4849550;29;20061;-89
2023/04/03 06:28:50;;;;;;;4.15;2.58;;;;;;;;;;4833898;29;20060;-90
2023/04/03 06:31:16;;;;;;;6.90;3.20;;;;;;;;;;4834268;29;20495;-89
2023/04/03 06:33:43;;;;;;;6.25;2.92;;;;;;;;;;4849664;29;20140;-89
2023/04/03 06:36:10;;;;;;;4.95;2.80;;;;;;;;;;4848930;29;20061;-89
2023/04/03 06:38:36;;;;;;;5.25;2.50;;;;;;;;;;4848935;29;20057;-89
2023/04/03 06:41:03;;;;;;;7.40;2.83;;;;;;;;;;4849749;29;20059;-89
2023/04/03 06:43:30;;;;;;;5.60;2.70;;;;;;;;;;4849664;29;20067;-89
2023/04/03 06:45:59;;;;;;;4.25;2.63;;;;;;;;;;4835551;29;20059;-89
2023/04/03 06:48:25;;;;;;;5.78;3.08;;;;;;;;;;4850022;29;20064;-89
2023/04/03 06:50:51;;;;;;;5.55;2.67;;;;;;;;;;4881160;29;20589;-88
2023/04/03 06:53:18;;;;;;;9.90;2.88;;;;;;;;;;4833720;29;20109;-89
2023/04/03 06:55:44;;;;;;;9.65;2.78;;;;;;;;;;4849175;29;20136;-88
2023/04/03 06:58:10;;;;;;;5.13;2.78;;;;;;;;;;4848682;29;20060;-89
2023/04/03 07:00:36;;;;;;;5.15;2.70;;;;;;;;;;4849062;29;20060;-89
2023/04/03 07:03:02;;;;;;;5.82;2.78;;;;;;;;;;4834023;29;20135;-92
2023/04/03 07:05:28;;;;;;;6.47;2.78;;;;;;;;;;4848960;29;20049;-91
2023/04/03 07:07:55;;;;;;;8.32;3.72;;;;;;;;;;4849021;29;20059;-91
2023/04/03 07:10:21;;;;;;;8.95;2.90;;;;;;;;;;4834173;29;20044;-89
2023/04/03 07:12:47;;;;;;;5.50;2.75;;;;;;;;;;4848918;29;20139;-91
2023/04/03 07:15:14;;;;;;;5.15;3.05;;;;;;;;;;4848777;29;20053;-90
2023/04/03 07:17:40;;;;;;;5.30;2.67;;;;;;;;;;4848744;29;20063;-89
2023/04/03 07:20:07;;;;;;;6.05;2.03;;;;;;;;;;4848716;29;20053;-93
2023/04/03 07:22:33;;;;;;;5.18;2.03;;;;;;;;;;4848786;29;20060;-89
2023/04/03 07:25:02;;;;;;;5.15;2.53;;;;;;;;;;4863844;29;20088;-89
2023/04/03 07:27:28;;;;;;;5.72;2.22;;;;;;;;;;4848757;29;20416;-89
2023/04/03 07:29:55;;;;;;;4.43;2.35;;;;;;;;;;4848646;29;20057;-90
2023/04/03 07:32:21;;;;;;;5.63;2.35;;;;;;;;;;4848590;29;20091;-90
2023/04/03 07:34:48;;;;;;;3.03;1.83;;;;;;;;;;4848949;29;20064;-93
2023/04/03 07:37:14;;;;;;;9.63;2.58;;;;;;;;;;4848610;29;20063;-90
2023/04/03 07:39:44;;;;;;;5.22;1.77;;;;;;;;;;4863989;29;20061;-93
2023/04/03 07:42:12;;;;;;;3.33;2.08;;;;;;;;;;4848762;29;20048;-89
2023/04/03 07:44:38;;;;;;;2.55;1.70;;;;;;;;;;4848229;29;20063;-92
2023/04/03 07:47:04;;;;;;;3.30;2.20;;;;;;;;;;4848602;29;20056;-90
2023/04/03 07:49:32;;;;;;;4.88;1.63;;;;;;;;;;4848889;29;20056;-90
2023/04/03 07:51:59;;;;;;;3.92;1.80;;;;;;;;;;4849302;29;20049;-90
2023/04/03 07:54:25;;;;;;;7.40;1.90;;;;;;;;;;4847967;29;20061;-91
2023/04/03 07:56:51;;;;;;;5.47;2.78;;;;;;;;;;4848285;29;20427;-91
2023/04/03 07:59:17;;;;;;;4.32;2.15;;;;;;;;;;4833847;29;20056;-91
2023/04/03 08:01:43;;;;;;;5.38;2.10;;;;;;;;;;4849374;29;20053;-93
2023/04/03 08:04:09;;;;;;;4.68;2.97;;;;;;;;;;4849779;29;20057;-90
2023/04/03 08:06:36;;;;;;;7.35;2.28;;;;;;;;;;4836017;29;20454;-92
2023/04/03 08:09:03;;;;;;;4.18;2.00;;;;;;;;;;4851586;29;20144;-91
2023/04/03 08:11:30;;;;;;;4.13;2.03;;;;;;;;;;4852031;29;20098;-92
2023/04/03 08:13:57;;;;;;;3.65;1.67;;;;;;;;;;4836137;29;20057;-92
2023/04/03 08:16:27;;;;;;;3.20;2.20;;;;;;;;;;4850784;29;20053;-89
2023/04/03 08:18:53;;;;;;;3.00;1.83;;;;;;;;;;4850121;29;20049;-90
2023/04/03 08:21:19;;;;;;;8.02;2.22;;;;;;;;;;4849715;29;20060;-92
2023/04/03 08:23:48;;;;;;;5.10;2.17;;;;;;;;;;4850172;29;20057;-94
2023/04/03 08:26:15;;;;;;;4.68;1.88;;;;;;;;;;4864865;29;20116;-90
2023/04/03 08:28:42;;;;;;;7.38;2.63;;;;;;;;;;4864143;29;20143;-90
2023/04/03 08:31:10;;;;;;;5.50;1.63;;;;;;;;;;4848656;29;20072;-90
2023/04/03 08:33:37;;;;;;;3.83;1.73;;;;;;;;;;4849371;29;20091;-92
2023/04/03 08:36:05;;;;;;;4.43;2.53;;;;;;;;;;4849222;29;20128;-92
2023/04/03 08:38:33;;;;;;;2.40;1.60;;;;;;;;;;4864942;29;20057;-93
2023/04/03 08:41:00;;;;;;;5.13;1.77;;;;;;;;;;4848872;29;20057;-91
2023/04/03 08:43:34;;;;;;;8.00;2.15;;;;;;;;;;4848143;29;20057;-93
2023/04/03 08:46:01;;;;;;;9.57;3.53;;;;;;;;;;4847823;29;20073;-91
2023/04/03 08:48:36;;;;;;;7.18;2.42;;;;;;;;;;4847403;29;20521;-90
2023/04/03 08:51:05;;;;;;;2.70;1.60;;;;;;;;;;4863278;29;20113;-92
2023/04/03 08:53:34;;;;;;;3.92;1.77;;;;;;;;;;4863320;29;20053;-91
2023/04/03 08:56:03;;;;;;;6.03;1.95;;;;;;;;;;4848822;29;20076;-93
2023/04/03 08:58:31;;;;;;;4.90;1.70;;;;;;;;;;4848095;29;20045;-93
2023/04/03 09:01:00;;;;;;;1.60;1.30;;;;;;;;;;4847955;29;20574;-92
2023/04/03 09:03:30;;;;;;;2.75;1.33;;;;;;;;;;4851629;29;20048;-93
2023/04/03 09:06:03;;;;;;;1.83;1.38;;;;;;;;;;4851365;29;20064;-92
2023/04/03 09:08:31;;;;;;;2.55;1.60;;;;;;;;;;4851140;29;20049;-92
2023/04/03 09:11:10;;;;;;;5.03;1.45;;;;;;;;;;4850057;29;20064;-92
2023/04/03 14:39:00;;;;;;;3.15;1.52;;;;;;;;;;4925374;23;20084;-88
2023/04/03 14:41:27;;;;;;;1.75;1.65;;;;;;;;;;4873148;29;20558;-90
2023/04/03 14:44:16;;;;;;;2.50;1.58;;;;;;;;;;4875231;29;20048;-90
2023/04/03 14:46:46;;;;;;;1.45;1.15;;;;;;;;;;4889849;29;20067;-90
2023/04/03 14:49:16;;;;;;;3.88;1.33;;;;;;;;;;4874994;29;20478;-89
2023/04/03 14:51:45;;;;;;;1.13;0.90;;;;;;;;;;4875338;29;20105;-91
2023/04/03 14:54:15;;;;;;;5.68;1.40;;;;;;;;;;4874643;29;20409;-90
2023/04/03 14:56:47;;;;;;;1.65;1.30;;;;;;;;;;4890178;29;20049;-90
2023/04/03 14:59:16;;;;;;;2.67;1.38;;;;;;;;;;4874012;29;20112;-91
2023/04/03 15:01:45;;;;;;;1.35;1.10;;;;;;;;;;4890128;29;20057;-88
2023/04/03 15:04:30;;;;;;;2.70;1.13;;;;;;;;;;4859208;29;20060;-92
2023/04/03 15:06:56;;;;;;;4.63;1.15;;;;;;;;;;4890832;29;20510;-91
2023/04/03 15:09:29;;;;;;;2.47;1.48;;;;;;;;;;4876331;29;20049;-91
2023/04/03 15:12:14;;;;;;;3.38;1.35;;;;;;;;;;4892109;29;20095;-90
2023/04/03 15:14:46;;;;;;;1.80;0.90;;;;;;;;;;4890053;29;20048;-91
2023/04/03 15:23:58;;;;;;;4.03;1.70;;;;;;;;;;4889564;29;20064;-90
2023/04/03 15:26:37;;;;;;;4.15;0.95;;;;;;;;;;4906214;29;20106;-90
2023/04/03 15:29:04;;;;;;;3.00;1.23;;;;;;;;;;4874398;29;20055;-91
2023/04/03 15:31:36;;;;;;;2.10;0.85;;;;;;;;;;4852352;29;20053;-91
2023/04/03 15:34:13;;;;;;;;;;;;;;;;;;;;;
2023/04/03 15:36:49;;;;;;;1.38;0.98;;;;;;;;;;4867689;29;20082;-90
2023/04/03 15:39:27;;;;;;;4.35;1.60;;;;;;;;;;4837146;29;20633;-91
2023/04/03 15:45:18;;;;;;;1.35;1.25;;;;;;;;;;4865190;29;20181;-91
2023/04/03 15:47:47;;;;;;;3.55;1.10;;;;;;;;;;4833851;29;20050;-90
2023/04/03 15:50:16;;;;;;;2.92;1.02;;;;;;;;;;4819842;29;20054;-90
2023/04/03 15:52:57;;;;;;;1.48;0.90;;;;;;;;;;4833293;29;20077;-90
2023/04/03 15:55:28;;;;;;;1.00;0.90;;;;;;;;;;4834659;29;20430;-91
2023/04/03 15:57:58;;;;;;;0.88;0.80;;;;;;;;;;4834689;29;20091;-91
2023/04/03 16:00:28;;;;;;;2.83;1.48;;;;;;;;;;4834666;29;20049;-91
2023/04/03 16:03:00;;;;;;;1.77;1.38;;;;;;;;;;4858316;29;20104;-92
2023/04/03 16:05:27;;;;;;;2.55;1.00;;;;;;;;;;4886652;29;20052;-90
2023/04/03 16:07:59;;;;;;;2.22;1.08;;;;;;;;;;4887080;29;20060;-92
2023/04/03 16:10:30;;;;;;;3.28;1.20;;;;;;;;;;4886522;29;20053;-91
2023/04/03 16:13:27;;;;;;;1.30;1.08;;;;;;;;;;4887116;29;20410;-91
2023/04/03 16:16:00;;;;;;;2.00;1.20;;;;;;;;;;4860107;29;20056;-92
2023/04/03 16:18:29;;;;;;;3.83;1.27;;;;;;;;;;4870005;29;20422;-92
2023/04/03 16:21:16;;;;;;;3.63;1.40;;;;;;;;;;4871944;29;20056;-90
2023/04/03 16:27:31;;;;;;;3.60;1.30;;;;;;;;;;4903152;29;20046;-91
2023/04/03 16:30:11;;;;;;;1.30;1.20;;;;;;;;;;4856051;29;20144;-92
2023/04/03 16:32:48;;;;;;;3.20;1.10;;;;;;;;;;4872468;29;20099;-91
2023/04/03 16:42:26;;;;;;;1.92;1.30;;;;;;;;;;4903561;29;20084;-92
2023/04/03 16:45:16;;;;;;;2.78;1.50;;;;;;;;;;4873296;29;20097;-92
2023/04/03 16:51:32;;;;;;;2.95;1.00;;;;;;;;;;4903993;29;20043;-91
2023/04/03 16:54:29;;;;;;;1.70;1.40;;;;;;;;;;4871231;29;20139;-91
2023/04/03 16:57:24;;;;;;;;;;;;;;;;;;;;;
2023/04/03 17:09:38;;;;;;;3.30;1.23;;;;;;;;;;4885218;29;20576;-91
2023/04/03 17:12:08;;;;;;;2.20;1.02;;;;;;;;;;4835651;29;20091;-92
2023/04/03 17:14:54;;;;;;;2.22;1.13;;;;;;;;;;4816697;29;20100;-92
2023/04/03 17:42:32;;;;;;;;;;;;;;;;;;;;;
2023/04/03 20:43:02;;;;;;;2.43;2.17;;;;;;;;;;5939656;23;20027;-92
2023/04/03 20:45:30;;;;;;;2.38;1.90;;;;;;;;;;4847623;29;20056;-92
2023/04/03 20:47:57;;;;;;;2.63;1.92;;;;;;;;;;4848561;29;20049;-92
2023/04/03 20:50:23;;;;;;;3.60;1.98;;;;;;;;;;4848884;29;20407;-93
2023/04/03 20:52:49;;;;;;;2.83;1.90;;;;;;;;;;4848896;29;20125;-93
2023/04/03 20:55:16;;;;;;;4.15;2.00;;;;;;;;;;4848787;29;20129;-92
2023/04/03 20:57:43;;;;;;;7.97;2.17;;;;;;;;;;4848286;29;20056;-93
2023/04/03 21:00:13;;;;;;;12.85;2.65;;;;;;;;;;4837040;29;20056;-93
2023/04/03 21:02:42;;;;;;;5.07;1.77;;;;;;;;;;4884001;29;20053;-93
2023/04/03 21:05:10;;;;;;;5.47;1.95;;;;;;;;;;4837754;29;20057;-93
2023/04/03 21:08:14;;;;;;;2.17;1.98;;;3.50;99.90;;;;;;4853076;29;20101;-93
2023/04/03 21:10:59;;;;;;;2.85;1.98;;;;;;;;;;4852437;29;20062;-92
2023/04/03 21:13:45;;;;;;;2.60;1.77;;;;;;;;;;4854655;29;20053;-92
2023/04/03 21:16:11;;;;;;;2.13;1.90;;;;;;;;;;4868917;29;20115;-91
2023/04/03 21:18:51;;;;;;;8.57;2.35;;;;;;;;;;4860842;29;20049;-92
2023/04/03 21:21:19;;;;;;;3.78;2.40;;;;;;;;;;4837453;29;20487;-92
2023/04/03 21:23:47;;;;;;;2.60;1.90;;;;;;;;;;4852243;29;20049;-91
2023/04/03 21:26:13;;;;;;;4.15;2.75;;;;;;;;;;4851862;29;20045;-93
2023/04/03 21:28:41;;;;;;;2.60;1.90;;;;;;;;;;4852175;29;20049;-93
2023/04/03 21:31:08;;;;;;;5.70;2.00;;;;;;;;;;4838687;29;20053;-94
2023/04/03 21:33:34;;;;;;;4.13;2.13;;;;;;;;;;4854283;29;20605;-94
2023/04/03 21:36:00;;;;;;;2.00;1.80;;;;;;;;;;4855046;29;20466;-94
2023/04/03 21:38:27;;;;;;;4.20;2.00;;;;;;;;;;4839789;29;20521;-93
2023/04/03 21:40:59;;;;;;;5.30;2.53;;;;;;;;;;4853608;29;20053;-93
2023/04/03 21:43:26;;;;;;;5.32;2.00;;;;;;;;;;4855202;29;20061;-94
2023/04/03 21:45:53;;;;;;;7.28;2.20;;;;;;;;;;4851498;29;20419;-95
2023/04/03 21:48:20;;;;;;;2.50;2.00;;;;;;;;;;4851655;29;20048;-94
2023/04/03 21:50:46;;;;;;;2.15;1.85;;;;;;;;;;4850909;29;20056;-94
2023/04/03 21:53:13;;;;;;;3.50;1.95;;;;;;;;;;4850948;29;20053;-94
2023/04/03 21:55:39;;;;;;;1.63;1.50;;;;;;;;;;4836145;29;20506;-94
2023/04/03 21:58:06;;;;;;;1.95;1.80;;;;;;;;;;4851710;29;20049;-94
2023/04/03 22:00:32;;;;;;;2.10;1.80;;;;;;;;;;4836128;29;20049;-94
2023/04/03 22:02:58;;;;;;;1.98;1.73;;;;;;;;;;4851557;29;20597;-94
2023/04/03 22:05:24;;;;;;;3.17;1.92;;;;;;;;;;4851281;29;20088;-94
2023/04/03 22:07:51;;;;;;;2.78;1.92;;;;;;;;;;4851555;29;20439;-92
2023/04/03 22:10:17;;;;;;;2.38;1.70;;;;;;;;;;4850910;29;20049;-93
2023/04/03 22:12:43;;;;;;;4.20;2.38;;;;;;;;;;4835825;29;20506;-94
2023/04/03 22:15:11;;;;;;;3.03;1.90;;;;;;;;;;4851918;29;20082;-94
2023/04/03 22:17:38;;;;;;;3.50;1.90;;;;;;;;;;4851117;29;20077;-94
2023/04/03 22:20:05;;;;;;;4.40;2.50;;;;;;;;;;4851703;29;20092;-95
2023/04/03 22:22:32;;;;;;;2.20;2.00;;;;;;;;;;4851286;29;20498;-93
2023/04/03 22:24:59;;;;;;;4.72;2.33;;;;;;;;;;4835622;29;20061;-95
2023/04/03 22:27:25;;;;;;;3.28;2.13;;;;;;;;;;4851083;29;20049;-93
2023/04/03 22:29:51;;;;;;;4.20;2.38;;;;;;;;;;4850017;29;20049;-93
2023/04/03 22:32:17;;;;;;;2.60;1.83;;;;;;;;;;4850506;29;20415;-92
2023/04/03 22:34:44;;;;;;;5.50;2.72;;;;;;;;;;4834763;29;20096;-93
2023/04/03 22:37:12;;;;;;;4.57;2.97;;;;;;;;;;4850018;29;20458;-93
2023/04/03 22:39:38;;;;;;;4.93;2.45;;;;;;;;;;4835667;29;20460;-93
2023/04/03 22:42:06;;;;;;;3.97;2.80;;;;;;;;;;4850503;29;20064;-94
2023/04/03 22:44:32;;;;;;;9.07;2.75;;;;;;;;;;4849839;29;20131;-93
2023/04/03 22:46:58;;;;;;;2.78;2.42;;;;;;;;;;4835231;29;20533;-93
2023/04/03 22:49:24;;;;;;;6.95;2.80;;;;;;;;;;4835327;29;20095;-91
2023/04/03 22:51:50;;;;;;;4.65;2.55;;;;;;;;;;4850614;29;20417;-93
2023/04/03 22:54:17;;;;;;;5.55;2.38;;;;;;;;;;4850323;29;20383;-93
2023/04/03 22:56:43;;;;;;;3.33;2.17;;;;;;;;;;4850493;29;20064;-92
2023/04/03 22:59:09;;;;;;;3.80;2.30;;;;;;;;;;4850709;29;20159;-93
2023/04/03 23:01:35;;;;;;;5.85;2.47;;;;;;;;;;4835081;29;20156;-93
2023/04/03 23:04:01;;;;;;;4.45;2.10;;;;;;;;;;4835356;29;20117;-94
2023/04/03 23:06:27;;;;;;;6.72;2.70;;;;;;;;;;4849891;29;20139;-92
2023/04/03 23:08:54;;;;;;;7.43;2.15;;;;;;;;;;4849989;29;20084;-91
2023/04/03 23:11:20;;;;;;;2.65;2.05;;;;;;;;;;4834421;29;20063;-92
2023/04/03 23:13:46;;;;;;;3.20;2.13;;;;;;;;;;4849238;29;20057;-93
2023/04/03 23:16:12;;;;;;;2.45;1.80;;;;;;;;;;4864369;29;20053;-93
2023/04/03 23:18:38;;;;;;;2.90;2.05;;;;;;;;;;4864600;29;20088;-92
2023/04/03 23:21:06;;;;;;;3.45;2.40;;;;;;;;;;4848442;29;20140;-92
2023/04/03 23:23:32;;;;;;;2.33;1.83;;;;;;;;;;4849268;29;20048;-93
2023/04/03 23:26:00;;;;;;;2.22;1.98;;;;;;;;;;4850198;29;20061;-93
2023/04/03 23:28:29;;;;;;;3.25;2.05;;;;;;;;;;4849153;29;20139;-93
2023/04/03 23:31:00;;;;;;;4.20;2.67;;;;;;;;;;4849642;29;20053;-93
2023/04/03 23:33:26;;;;;;;2.97;1.70;;;;;;;;;;4849433;29;20542;-94
2023/04/03 23:35:52;;;;;;;3.47;2.28;;;;;;;;;;4849150;29;20049;-93
2023/04/03 23:38:18;;;;;;;2.70;2.15;;;;;;;;;;4849252;29;20088;-94
2023/04/03 23:40:45;;;;;;;4.45;2.50;;;;;;;;;;4849323;29;20049;-95
2023/04/03 23:43:12;;;;;;;6.05;2.72;;;;;;;;;;4849463;29;20061;-94
2023/04/03 23:45:38;;;;;;;2.78;2.45;;;;;;;;;;4848689;29;20056;-96
2023/04/03 23:48:10;;;;;;;2.53;1.55;;;;;;;;;;4850203;29;20057;-95
2023/04/03 23:50:39;;;;;;;4.22;2.63;;;;;;;;;;4851110;29;20049;-94
2023/04/03 23:53:05;;;;;;;2.30;2.10;;;;;;;;;;4850143;29;20064;-95
2023/04/03 23:55:31;;;;;;;5.15;2.50;;;;;;;;;;4849504;29;20049;-95
2023/04/03 23:57:58;;;;;;;3.38;2.30;;;;;;;;;;4849432;29;20100;-96
